sensor_id;sensor_type;location;lat;lon;timestamp;temperature;humidity
19809;DHT22;48538;32.784;-96.802;2023-10-13T00:00:33;22.90;99.90
19809;DHT22;48538;32.784;-96.802;2023-10-13T00:03:04;22.90;99.90
19809;DHT22;48538;32.784;-96.802;2023-10-13T00:05:32;22.90;99.90
19809;DHT22;48538;32.784;-96.802;2023-10-13T00:08:02;22.90;99.90
19809;DHT22;48538;32.784;-96.802;2023-10-13T00:10:30;22.90;99.90
19809;DHT22;48538;32.784;-96.802;2023-10-13T00:12:56;22.80;99.90
19809;DHT22;48538;32.784;-96.802;2023-10-13T00:15:52;22.90;99.90
19809;DHT22;48538;32.784;-96.802;2023-10-13T00:18:18;22.80;99.90
19809;DHT22;48538;32.784;-96.802;2023-10-13T00:20:45;22.80;99.90
19809;DHT22;48538;32.784;-96.802;2023-10-13T00:23:15;22.80;99.90
19809;DHT22;48538;32.784;-96.802;2023-10-13T00:25:50;22.80;99.90
19809;DHT22;48538;32.784;-96.802;2023-10-13T00:28:26;22.60;99.90
19809;DHT22;48538;32.784;-96.802;2023-10-13T00:31:01;22.50;99.90
19809;DHT22;48538;32.784;-96.802;2023-10-13T00:33:38;22.50;99.90
19809;DHT22;48538;32.784;-96.802;2023-10-13T00:36:07;22.40;99.90
19809;DHT22;48538;32.784;-96.802;2023-10-13T00:38:35;22.40;99.90
19809;DHT22;48538;32.784;-96.802;2023-10-13T00:41:01;22.40;99.90
19809;DHT22;48538;32.784;-96.802;2023-10-13T00:43:50;22.30;99.90
19809;DHT22;48538;32.784;-96.802;2023-10-13T00:46:34;22.30;99.90
19809;DHT22;48538;32.784;-96.802;2023-10-13T00:49:03;22.20;99.90
19809;DHT22;48538;32.784;-96.802;2023-10-13T00:51:35;22.10;99.90
19809;DHT22;48538;32.784;-96.802;2023-10-13T00:54:05;22.10;99.90
19809;DHT22;48538;32.784;-96.802;2023-10-13T00:56:38;22.00;99.90
19809;DHT22;48538;32.784;-96.802;2023-10-13T00:59:24;22.00;99.90
19809;DHT22;48538;32.784;-96.802;2023-10-13T01:01:51;22.00;99.90
19809;DHT22;48538;32.784;-96.802;2023-10-13T01:04:21;22.00;99.90
19809;DHT22;48538;32.784;-96.802;2023-10-13T01:06:54;21.90;99.90
19809;DHT22;48538;32.784;-96.802;2023-10-13T01:09:20;21.90;99.90
19809;DHT22;48538;32.784;-96.802;2023-10-13T01:11:50;21.80;99.90
19809;DHT22;48538;32.784;-96.802;2023-10-13T01:14:21;21.80;99.90
19809;DHT22;48538;32.784;-96.802;2023-10-13T01:16:49;21.80;99.90
19809;DHT22;48538;32.784;-96.802;2023-10-13T01:19:19;21.70;99.90
19809;DHT22;48538;32.784;-96.802;2023-10-13T01:21:51;21.70;99.90
19809;DHT22;48538;32.784;-96.802;2023-10-13T01:24:37;21.70;99.90
19809;DHT22;48538;32.784;-96.802;2023-10-13T01:27:04;21.60;99.90
19809;DHT22;48538;32.784;-96.802;2023-10-13T01:29:44;21.60;99.90
19809;DHT22;48538;32.784;-96.802;2023-10-13T01:32:19;21.60;99.90
19809;DHT22;48538;32.784;-96.802;2023-10-13T01:34:45;21.60;99.90
19809;DHT22;48538;32.784;-96.802;2023-10-13T01:37:14;21.60;99.90
19809;DHT22;48538;32.784;-96.802;2023-10-13T01:39:42;21.60;99.90
19809;DHT22;48538;32.784;-96.802;2023-10-13T01:42:08;21.60;99.90
19809;DHT22;48538;32.784;-96.802;2023-10-13T01:44:35;21.50;99.90
19809;DHT22;48538;32.784;-96.802;2023-10-13T01:47:01;21.50;99.90
19809;DHT22;48538;32.784;-96.802;2023-10-13T01:49:35;21.50;99.90
19809;DHT22;48538;32.784;-96.802;2023-10-13T01:52:09;21.50;99.90
19809;DHT22;48538;32.784;-96.802;2023-10-13T01:54:42;21.50;99.90
19809;DHT22;48538;32.784;-96.802;2023-10-13T01:57:11;21.50;99.90
19809;DHT22;48538;32.784;-96.802;2023-10-13T01:59:48;21.40;99.90
19809;DHT22;48538;32.784;-96.802;2023-10-13T02:02:15;21.40;99.90
19809;DHT22;48538;32.784;-96.802;2023-10-13T02:04:45;21.40;99.90
19809;DHT22;48538;32.784;-96.802;2023-10-13T02:07:28;21.50;99.90
19809;DHT22;48538;32.784;-96.802;2023-10-13T02:09:57;21.50;99.90
19809;DHT22;48538;32.784;-96.802;2023-10-13T02:12:23;21.50;99.90
19809;DHT22;48538;32.784;-96.802;2023-10-13T02:14:53;21.40;99.90
19809;DHT22;48538;32.784;-96.802;2023-10-13T02:17:19;21.40;99.90
19809;DHT22;48538;32.784;-96.802;2023-10-13T02:19:49;21.40;99.90
19809;DHT22;48538;32.784;-96.802;2023-10-13T02:22:20;21.40;99.90
19809;DHT22;48538;32.784;-96.802;2023-10-13T02:24:55;21.40;99.90
19809;DHT22;48538;32.784;-96.802;2023-10-13T02:27:27;21.40;99.90
19809;DHT22;48538;32.784;-96.802;2023-10-13T02:29:54;21.40;99.90
19809;DHT22;48538;32.784;-96.802;2023-10-13T02:32:24;21.40;99.90
19809;DHT22;48538;32.784;-96.802;2023-10-13T02:34:52;21.40;99.90
19809;DHT22;48538;32.784;-96.802;2023-10-13T02:37:23;21.40;99.90
19809;DHT22;48538;32.784;-96.802;2023-10-13T02:39:49;21.40;99.90
19809;DHT22;48538;32.784;-96.802;2023-10-13T02:42:16;21.30;99.90
19809;DHT22;48538;32.784;-96.802;2023-10-13T02:44:49;21.30;99.90
19809;DHT22;48538;32.784;-96.802;2023-10-13T02:47:16;21.30;99.90
19809;DHT22;48538;32.784;-96.802;2023-10-13T02:49:45;21.40;99.90
19809;DHT22;48538;32.784;-96.802;2023-10-13T02:52:13;21.30;99.90
19809;DHT22;48538;32.784;-96.802;2023-10-13T02:54:41;21.30;99.90
19809;DHT22;48538;32.784;-96.802;2023-10-13T02:57:16;21.30;99.90
19809;DHT22;48538;32.784;-96.802;2023-10-13T02:59:44;21.30;99.90
19809;DHT22;48538;32.784;-96.802;2023-10-13T03:02:14;21.20;99.90
19809;DHT22;48538;32.784;-96.802;2023-10-13T03:05:02;21.20;99.90
19809;DHT22;48538;32.784;-96.802;2023-10-13T03:07:40;21.20;99.90
19809;DHT22;48538;32.784;-96.802;2023-10-13T03:10:09;21.20;99.90
19809;DHT22;48538;32.784;-96.802;2023-10-13T03:12:37;21.20;99.90
19809;DHT22;48538;32.784;-96.802;2023-10-13T03:15:04;21.20;99.90
19809;DHT22;48538;32.784;-96.802;2023-10-13T03:17:36;21.20;99.90
19809;DHT22;48538;32.784;-96.802;2023-10-13T03:20:06;21.10;99.90
19809;DHT22;48538;32.784;-96.802;2023-10-13T03:22:37;21.10;99.90
19809;DHT22;48538;32.784;-96.802;2023-10-13T03:25:03;21.10;99.90
19809;DHT22;48538;32.784;-96.802;2023-10-13T03:27:33;21.10;99.90
19809;DHT22;48538;32.784;-96.802;2023-10-13T03:30:26;21.00;99.90
19809;DHT22;48538;32.784;-96.802;2023-10-13T03:33:05;21.00;99.90
19809;DHT22;48538;32.784;-96.802;2023-10-13T03:35:39;20.90;99.90
19809;DHT22;48538;32.784;-96.802;2023-10-13T03:38:09;21.00;99.90
19809;DHT22;48538;32.784;-96.802;2023-10-13T03:40:46;20.90;99.90
19809;DHT22;48538;32.784;-96.802;2023-10-13T03:43:15;20.90;99.90
19809;DHT22;48538;32.784;-96.802;2023-10-13T03:45:49;20.90;99.90
19809;DHT22;48538;32.784;-96.802;2023-10-13T03:48:26;20.80;99.90
19809;DHT22;48538;32.784;-96.802;2023-10-13T03:50:53;20.80;99.90
19809;DHT22;48538;32.784;-96.802;2023-10-13T03:53:39;20.80;99.90
19809;DHT22;48538;32.784;-96.802;2023-10-13T03:56:22;20.80;99.90
19809;DHT22;48538;32.784;-96.802;2023-10-13T03:59:05;20.80;99.90
19809;DHT22;48538;32.784;-96.802;2023-10-13T04:01:33;20.80;99.90
19809;DHT22;48538;32.784;-96.802;2023-10-13T04:04:18;20.80;99.90
19809;DHT22;48538;32.784;-96.802;2023-10-13T04:06:56;20.80;99.90
19809;DHT22;48538;32.784;-96.802;2023-10-13T04:09:36;20.80;99.90
19809;DHT22;48538;32.784;-96.802;2023-10-13T04:12:04;20.80;99.90
19809;DHT22;48538;32.784;-96.802;2023-10-13T04:14:35;20.80;99.90
19809;DHT22;48538;32.784;-96.802;2023-10-13T04:17:14;20.80;99.90
19809;DHT22;48538;32.784;-96.802;2023-10-13T04:19:41;20.80;99.90
19809;DHT22;48538;32.784;-96.802;2023-10-13T04:22:26;20.80;99.90
19809;DHT22;48538;32.784;-96.802;2023-10-13T04:25:25;20.80;99.90
19809;DHT22;48538;32.784;-96.802;2023-10-13T04:28:08;20.80;99.90
19809;DHT22;48538;32.784;-96.802;2023-10-13T04:33:32;20.70;99.90
19809;DHT22;48538;32.784;-96.802;2023-10-13T04:36:09;20.70;99.90
19809;DHT22;48538;32.784;-96.802;2023-10-13T04:38:55;20.70;99.90
19809;DHT22;48538;32.784;-96.802;2023-10-13T04:43:58;20.70;99.90
19809;DHT22;48538;32.784;-96.802;2023-10-13T04:46:44;20.70;99.90
19809;DHT22;48538;32.784;-96.802;2023-10-13T04:49:14;20.70;99.90
19809;DHT22;48538;32.784;-96.802;2023-10-13T04:52:05;20.70;99.90
19809;DHT22;48538;32.784;-96.802;2023-10-13T04:54:37;20.60;99.90
19809;DHT22;48538;32.784;-96.802;2023-10-13T04:57:24;20.70;99.90
19809;DHT22;48538;32.784;-96.802;2023-10-13T05:00:09;20.60;99.90
19809;DHT22;48538;32.784;-96.802;2023-10-13T05:02:40;20.50;99.90
19809;DHT22;48538;32.784;-96.802;2023-10-13T05:05:12;20.50;99.90
19809;DHT22;48538;32.784;-96.802;2023-10-13T05:07:48;20.50;99.90
19809;DHT22;48538;32.784;-96.802;2023-10-13T05:10:34;20.50;99.90
19809;DHT22;48538;32.784;-96.802;2023-10-13T05:13:19;20.50;99.90
19809;DHT22;48538;32.784;-96.802;2023-10-13T05:16:04;20.50;99.90
19809;DHT22;48538;32.784;-96.802;2023-10-13T05:18:49;20.50;99.90
19809;DHT22;48538;32.784;-96.802;2023-10-13T05:21:33;20.50;99.90
19809;DHT22;48538;32.784;-96.802;2023-10-13T05:24:18;20.50;99.90
19809;DHT22;48538;32.784;-96.802;2023-10-13T05:27:02;20.50;99.90
19809;DHT22;48538;32.784;-96.802;2023-10-13T05:29:48;20.40;99.90
19809;DHT22;48538;32.784;-96.802;2023-10-13T05:32:33;20.40;99.90
19809;DHT22;48538;32.784;-96.802;2023-10-13T05:35:21;20.40;99.90
19809;DHT22;48538;32.784;-96.802;2023-10-13T05:38:05;20.40;99.90
19809;DHT22;48538;32.784;-96.802;2023-10-13T05:40:53;20.40;99.90
19809;DHT22;48538;32.784;-96.802;2023-10-13T05:43:38;20.30;99.90
19809;DHT22;48538;32.784;-96.802;2023-10-13T05:46:22;20.30;99.90
19809;DHT22;48538;32.784;-96.802;2023-10-13T05:48:52;20.30;99.90
19809;DHT22;48538;32.784;-96.802;2023-10-13T05:51:26;20.20;99.90
19809;DHT22;48538;32.784;-96.802;2023-10-13T05:54:05;20.20;99.90
19809;DHT22;48538;32.784;-96.802;2023-10-13T05:56:40;20.20;99.90
19809;DHT22;48538;32.784;-96.802;2023-10-13T05:59:26;20.20;99.90
19809;DHT22;48538;32.784;-96.802;2023-10-13T06:02:12;20.10;99.90
19809;DHT22;48538;32.784;-96.802;2023-10-13T06:04:56;20.10;99.90
19809;DHT22;48538;32.784;-96.802;2023-10-13T06:07:41;20.00;99.90
19809;DHT22;48538;32.784;-96.802;2023-10-13T06:10:25;20.10;99.90
19809;DHT22;48538;32.784;-96.802;2023-10-13T06:13:10;20.00;99.90
19809;DHT22;48538;32.784;-96.802;2023-10-13T06:15:55;20.10;99.90
19809;DHT22;48538;32.784;-96.802;2023-10-13T06:18:39;20.10;99.90
19809;DHT22;48538;32.784;-96.802;2023-10-13T06:21:24;20.00;99.90
19809;DHT22;48538;32.784;-96.802;2023-10-13T06:24:08;20.00;99.90
19809;DHT22;48538;32.784;-96.802;2023-10-13T06:26:53;20.00;99.90
19809;DHT22;48538;32.784;-96.802;2023-10-13T06:29:38;19.90;99.90
19809;DHT22;48538;32.784;-96.802;2023-10-13T06:32:04;20.00;99.90
19809;DHT22;48538;32.784;-96.802;2023-10-13T06:34:39;20.00;99.90
19809;DHT22;48538;32.784;-96.802;2023-10-13T06:37:12;20.00;99.90
19809;DHT22;48538;32.784;-96.802;2023-10-13T06:40:02;19.90;99.90
19809;DHT22;48538;32.784;-96.802;2023-10-13T06:42:48;20.00;99.90
19809;DHT22;48538;32.784;-96.802;2023-10-13T06:45:15;19.90;99.90
19809;DHT22;48538;32.784;-96.802;2023-10-13T06:47:43;20.00;99.90
19809;DHT22;48538;32.784;-96.802;2023-10-13T06:50:13;20.00;99.90
19809;DHT22;48538;32.784;-96.802;2023-10-13T06:52:48;20.00;99.90
19809;DHT22;48538;32.784;-96.802;2023-10-13T06:55:15;20.00;99.90
19809;DHT22;48538;32.784;-96.802;2023-10-13T06:57:55;20.00;99.90
19809;DHT22;48538;32.784;-96.802;2023-10-13T07:00:26;20.00;99.90
19809;DHT22;48538;32.784;-96.802;2023-10-13T07:02:56;20.00;99.90
19809;DHT22;48538;32.784;-96.802;2023-10-13T07:05:39;20.00;99.90
19809;DHT22;48538;32.784;-96.802;2023-10-13T07:08:07;20.00;99.90
19809;DHT22;48538;32.784;-96.802;2023-10-13T07:10:35;20.00;99.90
19809;DHT22;48538;32.784;-96.802;2023-10-13T07:13:14;20.00;99.90
19809;DHT22;48538;32.784;-96.802;2023-10-13T07:15:42;20.10;99.90
19809;DHT22;48538;32.784;-96.802;2023-10-13T07:18:15;20.10;99.90
19809;DHT22;48538;32.784;-96.802;2023-10-13T07:20:48;20.10;99.90
19809;DHT22;48538;32.784;-96.802;2023-10-13T07:23:15;20.10;99.90
19809;DHT22;48538;32.784;-96.802;2023-10-13T07:25:53;20.10;99.90
19809;DHT22;48538;32.784;-96.802;2023-10-13T07:28:21;20.20;99.90
19809;DHT22;48538;32.784;-96.802;2023-10-13T07:30:48;20.20;99.90
19809;DHT22;48538;32.784;-96.802;2023-10-13T07:33:21;20.20;99.90
19809;DHT22;48538;32.784;-96.802;2023-10-13T07:36:09;20.20;99.90
19809;DHT22;48538;32.784;-96.802;2023-10-13T07:38:45;20.30;99.90
19809;DHT22;48538;32.784;-96.802;2023-10-13T07:41:25;20.30;99.90
19809;DHT22;48538;32.784;-96.802;2023-10-13T07:43:56;20.30;99.90
19809;DHT22;48538;32.784;-96.802;2023-10-13T07:46:25;20.30;99.90
19809;DHT22;48538;32.784;-96.802;2023-10-13T07:48:57;20.30;99.90
19809;DHT22;48538;32.784;-96.802;2023-10-13T07:51:35;20.40;99.90
19809;DHT22;48538;32.784;-96.802;2023-10-13T07:54:12;20.40;99.90
19809;DHT22;48538;32.784;-96.802;2023-10-13T07:56:44;20.40;99.90
19809;DHT22;48538;32.784;-96.802;2023-10-13T07:59:11;20.40;99.90
19809;DHT22;48538;32.784;-96.802;2023-10-13T08:01:38;20.50;99.90
19809;DHT22;48538;32.784;-96.802;2023-10-13T08:04:09;20.50;99.90
19809;DHT22;48538;32.784;-96.802;2023-10-13T08:06:40;20.50;99.90
19809;DHT22;48538;32.784;-96.802;2023-10-13T08:09:09;20.50;99.90
19809;DHT22;48538;32.784;-96.802;2023-10-13T08:11:36;20.50;99.90
19809;DHT22;48538;32.784;-96.802;2023-10-13T08:14:04;20.50;99.90
19809;DHT22;48538;32.784;-96.802;2023-10-13T08:16:38;20.50;99.90
19809;DHT22;48538;32.784;-96.802;2023-10-13T08:19:24;20.50;99.90
19809;DHT22;48538;32.784;-96.802;2023-10-13T08:21:55;20.60;99.90
19809;DHT22;48538;32.784;-96.802;2023-10-13T08:24:26;20.50;99.90
19809;DHT22;48538;32.784;-96.802;2023-10-13T08:27:19;20.60;99.90
19809;DHT22;48538;32.784;-96.802;2023-10-13T08:30:03;20.60;99.90
19809;DHT22;48538;32.784;-96.802;2023-10-13T08:32:48;20.60;99.90
19809;DHT22;48538;32.784;-96.802;2023-10-13T08:35:23;20.60;99.90
19809;DHT22;48538;32.784;-96.802;2023-10-13T08:38:12;20.70;99.90
19809;DHT22;48538;32.784;-96.802;2023-10-13T08:40:44;20.70;99.90
19809;DHT22;48538;32.784;-96.802;2023-10-13T08:43:32;20.70;99.90
19809;DHT22;48538;32.784;-96.802;2023-10-13T08:46:27;20.80;99.90
19809;DHT22;48538;32.784;-96.802;2023-10-13T08:48:57;20.80;99.90
19809;DHT22;48538;32.784;-96.802;2023-10-13T08:51:36;20.80;99.90
19809;DHT22;48538;32.784;-96.802;2023-10-13T08:54:33;20.80;99.90
19809;DHT22;48538;32.784;-96.802;2023-10-13T08:57:05;20.80;99.90
19809;DHT22;48538;32.784;-96.802;2023-10-13T08:59:49;20.80;99.90
19809;DHT22;48538;32.784;-96.802;2023-10-13T09:02:22;20.80;99.90
19809;DHT22;48538;32.784;-96.802;2023-10-13T09:05:09;20.80;99.90
19809;DHT22;48538;32.784;-96.802;2023-10-13T09:07:55;20.80;99.90
19809;DHT22;48538;32.784;-96.802;2023-10-13T09:10:33;20.90;99.90
19809;DHT22;48538;32.784;-96.802;2023-10-13T09:13:00;20.90;99.90
19809;DHT22;48538;32.784;-96.802;2023-10-13T09:15:37;20.90;99.90
19809;DHT22;48538;32.784;-96.802;2023-10-13T09:18:28;20.90;99.90
19809;DHT22;48538;32.784;-96.802;2023-10-13T09:21:15;20.90;99.90
19809;DHT22;48538;32.784;-96.802;2023-10-13T09:24:00;21.00;99.90
19809;DHT22;48538;32.784;-96.802;2023-10-13T09:27:02;21.00;99.90
19809;DHT22;48538;32.784;-96.802;2023-10-13T09:29:30;21.00;99.90
19809;DHT22;48538;32.784;-96.802;2023-10-13T09:32:04;21.00;99.90
19809;DHT22;48538;32.784;-96.802;2023-10-13T09:34:37;21.00;99.90
19809;DHT22;48538;32.784;-96.802;2023-10-13T09:37:06;21.10;99.90
19809;DHT22;48538;32.784;-96.802;2023-10-13T09:39:35;21.10;99.90
19809;DHT22;48538;32.784;-96.802;2023-10-13T09:42:18;21.10;99.90
19809;DHT22;48538;32.784;-96.802;2023-10-13T09:44:45;21.10;99.90
19809;DHT22;48538;32.784;-96.802;2023-10-13T09:47:23;21.10;99.90
19809;DHT22;48538;32.784;-96.802;2023-10-13T09:50:02;21.10;99.90
19809;DHT22;48538;32.784;-96.802;2023-10-13T09:52:32;21.10;99.90
19809;DHT22;48538;32.784;-96.802;2023-10-13T09:55:33;21.20;99.90
19809;DHT22;48538;32.784;-96.802;2023-10-13T09:58:02;21.20;99.90
19809;DHT22;48538;32.784;-96.802;2023-10-13T10:00:48;21.20;99.90
19809;DHT22;48538;32.784;-96.802;2023-10-13T10:03:26;21.10;99.90
19809;DHT22;48538;32.784;-96.802;2023-10-13T10:06:02;21.20;99.90
19809;DHT22;48538;32.784;-96.802;2023-10-13T10:08:33;21.20;99.90
19809;DHT22;48538;32.784;-96.802;2023-10-13T10:19:21;21.10;99.90
19809;DHT22;48538;32.784;-96.802;2023-10-13T10:21:47;21.20;99.90
19809;DHT22;48538;32.784;-96.802;2023-10-13T10:24:15;21.10;99.90
19809;DHT22;48538;32.784;-96.802;2023-10-13T10:26:56;21.10;99.90
19809;DHT22;48538;32.784;-96.802;2023-10-13T10:29:22;21.20;99.90
19809;DHT22;48538;32.784;-96.802;2023-10-13T10:31:49;21.10;99.90
19809;DHT22;48538;32.784;-96.802;2023-10-13T10:34:16;21.10;99.90
19809;DHT22;48538;32.784;-96.802;2023-10-13T10:36:54;21.10;99.90
19809;DHT22;48538;32.784;-96.802;2023-10-13T10:39:32;21.20;99.90
19809;DHT22;48538;32.784;-96.802;2023-10-13T10:42:11;21.20;99.90
19809;DHT22;48538;32.784;-96.802;2023-10-13T10:44:52;21.10;99.90
19809;DHT22;48538;32.784;-96.802;2023-10-13T10:47:21;21.10;99.90
19809;DHT22;48538;32.784;-96.802;2023-10-13T10:50:00;21.20;99.90
19809;DHT22;48538;32.784;-96.802;2023-10-13T10:52:34;21.20;99.90
19809;DHT22;48538;32.784;-96.802;2023-10-13T10:55:04;21.10;99.90
19809;DHT22;48538;32.784;-96.802;2023-10-13T10:57:33;21.20;99.90
19809;DHT22;48538;32.784;-96.802;2023-10-13T11:00:04;21.20;99.90
19809;DHT22;48538;32.784;-96.802;2023-10-13T11:02:38;21.20;99.90
19809;DHT22;48538;32.784;-96.802;2023-10-13T11:05:04;21.20;99.90
19809;DHT22;48538;32.784;-96.802;2023-10-13T11:07:32;21.20;99.90
19809;DHT22;48538;32.784;-96.802;2023-10-13T11:10:18;21.20;99.90
19809;DHT22;48538;32.784;-96.802;2023-10-13T11:12:56;21.20;99.90
19809;DHT22;48538;32.784;-96.802;2023-10-13T11:15:25;21.20;99.90
19809;DHT22;48538;32.784;-96.802;2023-10-13T11:18:00;21.20;99.90
19809;DHT22;48538;32.784;-96.802;2023-10-13T11:20:26;21.20;99.90
19809;DHT22;48538;32.784;-96.802;2023-10-13T11:23:11;21.20;99.90
19809;DHT22;48538;32.784;-96.802;2023-10-13T11:25:38;21.20;99.90
19809;DHT22;48538;32.784;-96.802;2023-10-13T11:28:14;21.20;99.90
19809;DHT22;48538;32.784;-96.802;2023-10-13T11:30:48;21.20;99.90
19809;DHT22;48538;32.784;-96.802;2023-10-13T11:33:18;21.20;99.90
19809;DHT22;48538;32.784;-96.802;2023-10-13T11:35:49;21.20;99.90
19809;DHT22;48538;32.784;-96.802;2023-10-13T11:38:31;21.10;99.90
19809;DHT22;48538;32.784;-96.802;2023-10-13T11:41:05;21.20;99.90
19809;DHT22;48538;32.784;-96.802;2023-10-13T11:43:35;21.20;99.90
19809;DHT22;48538;32.784;-96.802;2023-10-13T11:46:25;21.10;99.90
19809;DHT22;48538;32.784;-96.802;2023-10-13T11:49:07;21.20;99.90
19809;DHT22;48538;32.784;-96.802;2023-10-13T11:51:40;21.20;99.90
19809;DHT22;48538;32.784;-96.802;2023-10-13T11:54:13;21.20;99.90
19809;DHT22;48538;32.784;-96.802;2023-10-13T11:56:42;21.20;99.90
19809;DHT22;48538;32.784;-96.802;2023-10-13T11:59:08;21.20;99.90
19809;DHT22;48538;32.784;-96.802;2023-10-13T12:01:52;21.20;99.90
19809;DHT22;48538;32.784;-96.802;2023-10-13T12:04:37;21.20;99.90
19809;DHT22;48538;32.784;-96.802;2023-10-13T12:07:30;21.20;99.90
19809;DHT22;48538;32.784;-96.802;2023-10-13T12:10:14;21.20;99.90
19809;DHT22;48538;32.784;-96.802;2023-10-13T12:13:00;21.20;99.90
19809;DHT22;48538;32.784;-96.802;2023-10-13T12:15:32;21.20;99.90
19809;DHT22;48538;32.784;-96.802;2023-10-13T12:18:15;21.20;99.90
19809;DHT22;48538;32.784;-96.802;2023-10-13T12:20:41;21.20;99.90
19809;DHT22;48538;32.784;-96.802;2023-10-13T12:25:43;21.20;99.90
19809;DHT22;48538;32.784;-96.802;2023-10-13T12:28:25;21.20;99.90
19809;DHT22;48538;32.784;-96.802;2023-10-13T12:30:54;21.30;99.90
19809;DHT22;48538;32.784;-96.802;2023-10-13T12:33:24;21.30;99.90
19809;DHT22;48538;32.784;-96.802;2023-10-13T12:36:00;21.30;99.90
19809;DHT22;48538;32.784;-96.802;2023-10-13T12:38:39;21.30;99.90
19809;DHT22;48538;32.784;-96.802;2023-10-13T12:41:14;21.20;99.90
19809;DHT22;48538;32.784;-96.802;2023-10-13T12:43:59;21.20;99.90
19809;DHT22;48538;32.784;-96.802;2023-10-13T12:46:44;21.20;99.90
19809;DHT22;48538;32.784;-96.802;2023-10-13T12:49:28;21.30;99.90
19809;DHT22;48538;32.784;-96.802;2023-10-13T12:52:07;21.30;99.90
19809;DHT22;48538;32.784;-96.802;2023-10-13T12:54:42;21.30;99.90
19809;DHT22;48538;32.784;-96.802;2023-10-13T12:57:16;21.30;99.90
19809;DHT22;48538;32.784;-96.802;2023-10-13T12:59:43;21.30;99.90
19809;DHT22;48538;32.784;-96.802;2023-10-13T13:02:09;21.30;99.90
19809;DHT22;48538;32.784;-96.802;2023-10-13T13:04:41;21.30;99.90
19809;DHT22;48538;32.784;-96.802;2023-10-13T13:07:10;21.40;99.90
19809;DHT22;48538;32.784;-96.802;2023-10-13T13:09:40;21.40;99.90
19809;DHT22;48538;32.784;-96.802;2023-10-13T13:12:07;21.40;99.90
19809;DHT22;48538;32.784;-96.802;2023-10-13T13:14:33;21.40;99.90
19809;DHT22;48538;32.784;-96.802;2023-10-13T13:17:06;21.50;99.90
19809;DHT22;48538;32.784;-96.802;2023-10-13T13:19:36;21.40;99.90
19809;DHT22;48538;32.784;-96.802;2023-10-13T13:22:05;21.40;99.90
19809;DHT22;48538;32.784;-96.802;2023-10-13T13:24:38;21.50;99.90
19809;DHT22;48538;32.784;-96.802;2023-10-13T13:27:13;21.50;99.90
19809;DHT22;48538;32.784;-96.802;2023-10-13T13:29:42;21.50;99.90
19809;DHT22;48538;32.784;-96.802;2023-10-13T13:32:09;21.60;99.90
19809;DHT22;48538;32.784;-96.802;2023-10-13T13:34:48;21.60;99.90
19809;DHT22;48538;32.784;-96.802;2023-10-13T13:37:21;21.60;99.90
19809;DHT22;48538;32.784;-96.802;2023-10-13T13:39:47;21.70;99.90
19809;DHT22;48538;32.784;-96.802;2023-10-13T13:42:14;21.70;99.90
19809;DHT22;48538;32.784;-96.802;2023-10-13T13:44:44;21.70;99.90
19809;DHT22;48538;32.784;-96.802;2023-10-13T13:47:13;21.70;99.90
19809;DHT22;48538;32.784;-96.802;2023-10-13T13:49:40;21.70;99.90
19809;DHT22;48538;32.784;-96.802;2023-10-13T13:52:12;21.80;99.90
19809;DHT22;48538;32.784;-96.802;2023-10-13T13:54:44;21.80;99.90
19809;DHT22;48538;32.784;-96.802;2023-10-13T13:57:10;21.80;99.90
19809;DHT22;48538;32.784;-96.802;2023-10-13T13:59:39;21.80;99.90
19809;DHT22;48538;32.784;-96.802;2023-10-13T14:02:09;21.90;99.90
19809;DHT22;48538;32.784;-96.802;2023-10-13T14:04:48;22.00;99.90
19809;DHT22;48538;32.784;-96.802;2023-10-13T14:07:20;22.00;99.90
19809;DHT22;48538;32.784;-96.802;2023-10-13T14:09:49;22.00;99.90
19809;DHT22;48538;32.784;-96.802;2023-10-13T14:12:19;22.00;99.90
19809;DHT22;48538;32.784;-96.802;2023-10-13T14:15:03;22.10;99.90
19809;DHT22;48538;32.784;-96.802;2023-10-13T14:17:30;22.10;99.90
19809;DHT22;48538;32.784;-96.802;2023-10-13T14:20:01;22.10;99.90
19809;DHT22;48538;32.784;-96.802;2023-10-13T14:22:40;22.10;99.90
19809;DHT22;48538;32.784;-96.802;2023-10-13T14:25:07;22.10;99.90
19809;DHT22;48538;32.784;-96.802;2023-10-13T14:27:41;22.10;99.90
19809;DHT22;48538;32.784;-96.802;2023-10-13T14:30:08;22.10;99.90
19809;DHT22;48538;32.784;-96.802;2023-10-13T14:32:34;22.10;99.90
19809;DHT22;48538;32.784;-96.802;2023-10-13T14:35:06;22.20;99.90
19809;DHT22;48538;32.784;-96.802;2023-10-13T14:37:42;22.30;99.90
19809;DHT22;48538;32.784;-96.802;2023-10-13T14:40:08;22.30;99.90
19809;DHT22;48538;32.784;-96.802;2023-10-13T14:42:39;22.30;99.90
19809;DHT22;48538;32.784;-96.802;2023-10-13T14:45:08;22.40;99.90
19809;DHT22;48538;32.784;-96.802;2023-10-13T14:47:39;22.60;99.90
19809;DHT22;48538;32.784;-96.802;2023-10-13T14:50:06;22.50;99.90
19809;DHT22;48538;32.784;-96.802;2023-10-13T14:52:32;22.70;99.90
19809;DHT22;48538;32.784;-96.802;2023-10-13T14:54:59;22.80;99.90
19809;DHT22;48538;32.784;-96.802;2023-10-13T14:57:25;22.90;99.90
19809;DHT22;48538;32.784;-96.802;2023-10-13T14:59:54;23.00;99.90
19809;DHT22;48538;32.784;-96.802;2023-10-13T15:02:21;23.00;99.90
19809;DHT22;48538;32.784;-96.802;2023-10-13T15:04:48;23.10;99.90
19809;DHT22;48538;32.784;-96.802;2023-10-13T15:07:15;23.10;99.90
19809;DHT22;48538;32.784;-96.802;2023-10-13T15:09:43;23.20;99.90
19809;DHT22;48538;32.784;-96.802;2023-10-13T15:12:10;23.30;99.90
19809;DHT22;48538;32.784;-96.802;2023-10-13T15:14:40;23.30;99.90
19809;DHT22;48538;32.784;-96.802;2023-10-13T15:17:10;23.30;99.90
19809;DHT22;48538;32.784;-96.802;2023-10-13T15:19:36;23.30;99.90
19809;DHT22;48538;32.784;-96.802;2023-10-13T15:22:05;23.40;99.90
19809;DHT22;48538;32.784;-96.802;2023-10-13T15:24:38;23.50;99.90
19809;DHT22;48538;32.784;-96.802;2023-10-13T15:27:11;23.50;99.90
19809;DHT22;48538;32.784;-96.802;2023-10-13T15:29:37;23.60;99.90
19809;DHT22;48538;32.784;-96.802;2023-10-13T15:32:05;23.80;99.90
19809;DHT22;48538;32.784;-96.802;2023-10-13T15:34:51;23.80;99.90
19809;DHT22;48538;32.784;-96.802;2023-10-13T15:37:18;23.80;99.90
19809;DHT22;48538;32.784;-96.802;2023-10-13T15:39:46;23.80;99.90
19809;DHT22;48538;32.784;-96.802;2023-10-13T15:42:12;23.70;99.90
19809;DHT22;48538;32.784;-96.802;2023-10-13T15:44:40;23.50;99.90
19809;DHT22;48538;32.784;-96.802;2023-10-13T15:47:09;23.40;99.90
19809;DHT22;48538;32.784;-96.802;2023-10-13T15:49:38;23.40;99.90
19809;DHT22;48538;32.784;-96.802;2023-10-13T15:52:08;23.30;99.90
19809;DHT22;48538;32.784;-96.802;2023-10-13T15:54:37;23.30;99.90
19809;DHT22;48538;32.784;-96.802;2023-10-13T15:57:05;23.30;99.90
19809;DHT22;48538;32.784;-96.802;2023-10-13T15:59:33;23.30;99.90
19809;DHT22;48538;32.784;-96.802;2023-10-13T16:02:00;23.20;99.90